createdAt,value
2022-09-04T00:00:01.559Z,17.09
2022-09-04T00:01:01.720Z,17.09
2022-09-04T00:02:01.892Z,17.07
2022-09-04T00:03:02.083Z,17.05
2022-09-04T00:04:02.351Z,17.04
2022-09-04T00:05:02.725Z,17.04
2022-09-04T00:06:02.777Z,17.04
2022-09-04T00:07:02.955Z,17.02
2022-09-04T00:08:03.172Z,17.04
2022-09-04T00:09:03.330Z,17.02
2022-09-04T00:10:03.496Z,17.01
2022-09-04T00:11:03.685Z,17.01
2022-09-04T00:12:03.860Z,16.99
2022-09-04T00:13:04.051Z,16.99
2022-09-04T00:14:05.208Z,16.98
2022-09-04T00:15:04.370Z,16.97
2022-09-04T00:16:04.585Z,16.95
2022-09-04T00:17:04.735Z,16.94
2022-09-04T00:18:04.925Z,16.92
2022-09-04T00:19:05.084Z,16.92
2022-09-04T00:20:05.253Z,16.91
2022-09-04T00:21:05.428Z,16.91
2022-09-04T00:22:05.600Z,16.91
2022-09-04T00:23:05.777Z,16.87
2022-09-04T00:24:05.942Z,16.83
2022-09-04T00:25:06.120Z,16.82
2022-09-04T00:26:06.252Z,16.80
2022-09-04T00:27:06.469Z,16.77
2022-09-04T00:28:06.657Z,16.76
2022-09-04T00:29:06.858Z,16.74
2022-09-04T00:30:07.046Z,16.74
2022-09-04T00:31:07.232Z,16.73
2022-09-04T00:32:07.416Z,16.72
2022-09-04T00:33:07.506Z,16.73
2022-09-04T00:34:07.731Z,16.73
2022-09-04T00:35:07.884Z,16.69
2022-09-04T00:36:08.056Z,16.69
2022-09-04T00:37:08.236Z,16.69
2022-09-04T00:38:08.435Z,16.69
2022-09-04T00:39:08.606Z,16.69
2022-09-04T00:40:09.736Z,16.68
2022-09-04T00:41:08.896Z,16.66
2022-09-04T00:42:09.074Z,16.65
2022-09-04T00:43:09.275Z,16.64
2022-09-04T00:44:09.436Z,16.65
2022-09-04T00:45:11.986Z,16.62
2022-09-04T00:46:10.792Z,16.59
2022-09-04T00:47:09.934Z,16.58
2022-09-04T00:48:10.135Z,16.58
2022-09-04T00:49:10.455Z,16.55
2022-09-04T00:50:10.540Z,16.55
2022-09-04T00:51:10.736Z,16.54
2022-09-04T00:52:11.142Z,16.55
2022-09-04T00:53:11.123Z,16.54
2022-09-04T00:54:11.290Z,16.55
2022-09-04T00:55:11.534Z,16.51
2022-09-04T00:56:11.718Z,16.51
2022-09-04T00:57:11.874Z,16.50
2022-09-04T00:58:12.093Z,16.49
2022-09-04T00:59:12.258Z,16.47
2022-09-04T01:00:12.433Z,16.49
2022-09-04T01:01:12.660Z,16.46
2022-09-04T01:02:13.808Z,16.44
2022-09-04T01:03:12.974Z,16.41
2022-09-04T01:04:13.076Z,16.39
2022-09-04T01:05:19.869Z,16.37
2022-09-04T01:06:14.388Z,16.37
2022-09-04T01:07:13.586Z,16.37
2022-09-04T01:08:16.613Z,16.37
2022-09-04T01:09:13.965Z,16.36
2022-09-04T01:10:14.153Z,16.32
2022-09-04T01:11:14.319Z,16.31
2022-09-04T01:12:14.545Z,16.26
2022-09-04T01:13:14.636Z,16.25
2022-09-04T01:14:14.813Z,16.25
2022-09-04T01:15:14.979Z,16.25
2022-09-04T01:16:15.208Z,16.24
2022-09-04T01:17:15.372Z,16.26
2022-09-04T01:18:15.570Z,16.26
2022-09-04T01:19:15.742Z,16.25
2022-09-04T01:20:15.945Z,16.24
2022-09-04T01:21:16.172Z,16.21
2022-09-04T01:22:16.373Z,16.18
2022-09-04T01:23:17.532Z,16.16
2022-09-04T01:24:16.779Z,16.16
2022-09-04T01:25:16.960Z,16.13
2022-09-04T01:26:17.131Z,16.12
2022-09-04T01:27:17.313Z,16.10
2022-09-04T01:28:17.580Z,16.10
2022-09-04T01:29:17.759Z,16.12
2022-09-04T01:30:17.910Z,16.12
2022-09-04T01:31:18.113Z,16.09
2022-09-04T01:32:18.279Z,16.10
2022-09-04T01:33:18.466Z,16.09
2022-09-04T01:34:18.732Z,16.09
2022-09-04T01:35:18.783Z,16.08
2022-09-04T01:36:18.961Z,16.08
2022-09-04T01:37:19.134Z,16.05
2022-09-04T01:38:19.449Z,16.05
2022-09-04T01:39:19.619Z,16.05
2022-09-04T01:40:19.669Z,16.05
2022-09-04T01:41:19.869Z,16.02
2022-09-04T01:42:20.039Z,15.99
2022-09-04T01:43:20.248Z,15.99
2022-09-04T01:44:20.438Z,15.96
2022-09-04T01:45:20.690Z,15.96
2022-09-04T01:46:20.747Z,15.98
2022-09-04T01:47:20.918Z,15.96
2022-09-04T01:48:21.958Z,15.94
2022-09-04T01:49:21.253Z,15.92
2022-09-04T01:50:21.426Z,15.91
2022-09-04T01:51:21.638Z,15.91
2022-09-04T01:52:21.788Z,15.92
2022-09-04T01:53:21.998Z,15.91
2022-09-04T01:54:22.177Z,15.90
2022-09-04T01:55:22.346Z,15.90
2022-09-04T01:56:22.580Z,15.87
2022-09-04T01:57:22.760Z,15.87
2022-09-04T01:58:22.994Z,15.87
2022-09-04T01:59:23.087Z,15.85
2022-09-04T02:00:24.954Z,15.83
2022-09-04T02:01:23.500Z,15.80
2022-09-04T02:02:23.753Z,15.81
2022-09-04T02:03:23.857Z,15.80
2022-09-04T02:04:24.051Z,15.80
2022-09-04T02:05:24.235Z,15.78
2022-09-04T02:06:24.421Z,15.76
2022-09-04T02:07:24.602Z,15.76
2022-09-04T02:08:24.846Z,15.75
2022-09-04T02:09:24.926Z,15.73
2022-09-04T02:10:25.105Z,15.75
2022-09-04T02:11:27.852Z,15.76
2022-09-04T02:12:25.495Z,15.72
2022-09-04T02:13:25.688Z,15.75
2022-09-04T02:14:25.875Z,15.70
2022-09-04T02:15:26.054Z,15.70
2022-09-04T02:16:26.304Z,15.66
2022-09-04T02:17:26.394Z,15.67
2022-09-04T02:18:26.593Z,15.66
2022-09-04T02:19:26.807Z,15.65
2022-09-04T02:20:26.958Z,15.65
2022-09-04T02:21:27.145Z,15.63
2022-09-04T02:22:27.358Z,15.60
2022-09-04T02:23:27.541Z,15.59
2022-09-04T02:24:27.722Z,15.59
2022-09-04T02:25:27.917Z,15.59
2022-09-04T02:26:28.089Z,15.59
2022-09-04T02:27:28.308Z,15.59
2022-09-04T02:28:28.494Z,15.59
2022-09-04T02:29:28.679Z,15.59
2022-09-04T02:30:28.874Z,15.57
2022-09-04T02:31:29.121Z,15.54
2022-09-04T02:32:29.221Z,15.52
2022-09-04T02:33:29.431Z,15.54
2022-09-04T02:34:29.601Z,15.55
2022-09-04T02:35:29.781Z,15.54
2022-09-04T02:36:29.961Z,15.55
2022-09-04T02:37:30.139Z,15.54
2022-09-04T02:38:30.334Z,15.54
2022-09-04T02:39:30.550Z,15.52
2022-09-04T02:40:30.746Z,15.51
2022-09-04T02:41:30.918Z,15.51
2022-09-04T02:42:31.079Z,15.51
2022-09-04T02:43:31.281Z,15.50
2022-09-04T02:44:31.458Z,15.51
2022-09-04T02:45:31.639Z,15.51
2022-09-04T02:46:31.942Z,15.50
2022-09-04T02:47:32.024Z,15.48
2022-09-04T02:48:32.229Z,15.48
2022-09-04T02:49:32.419Z,15.50
2022-09-04T02:50:32.599Z,15.47
2022-09-04T02:51:32.776Z,15.48
2022-09-04T02:52:32.943Z,15.48
2022-09-04T02:53:33.158Z,15.50
2022-09-04T02:54:33.329Z,15.48
2022-09-04T02:55:33.511Z,15.50
2022-09-04T02:56:33.679Z,15.52
2022-09-04T02:57:33.857Z,15.51
2022-09-04T02:58:34.052Z,15.50
2022-09-04T02:59:34.238Z,15.50
2022-09-04T03:00:34.462Z,15.51
2022-09-04T03:01:34.656Z,15.50
2022-09-04T03:02:34.788Z,15.51
2022-09-04T03:03:34.967Z,15.52
2022-09-04T03:04:35.134Z,15.51
2022-09-04T03:05:35.313Z,15.50
2022-09-04T03:06:35.482Z,15.50
2022-09-04T03:07:35.657Z,15.51
2022-09-04T03:08:36.398Z,15.52
2022-09-04T03:09:36.037Z,15.55
2022-09-04T03:10:36.222Z,15.52
2022-09-04T03:11:36.399Z,15.54
2022-09-04T03:12:36.589Z,15.55
2022-09-04T03:13:36.788Z,15.54
2022-09-04T03:14:36.960Z,15.54
2022-09-04T03:15:37.147Z,15.50
2022-09-04T03:16:37.391Z,15.50
2022-09-04T03:17:37.474Z,15.48
2022-09-04T03:18:37.667Z,15.47
2022-09-04T03:19:37.854Z,15.47
2022-09-04T03:20:38.016Z,15.45
2022-09-04T03:21:38.210Z,15.45
2022-09-04T03:22:38.386Z,15.44
2022-09-04T03:23:38.567Z,15.43
2022-09-04T03:24:38.756Z,15.41
2022-09-04T03:25:38.928Z,15.43
2022-09-04T03:26:39.096Z,15.41
2022-09-04T03:27:39.256Z,15.41
2022-09-04T03:28:39.438Z,15.41
2022-09-04T03:29:39.613Z,15.43
2022-09-04T03:30:39.781Z,15.44
2022-09-04T03:31:40.021Z,15.43
2022-09-04T03:32:40.076Z,15.43
2022-09-04T03:33:40.249Z,15.41
2022-09-04T03:34:40.450Z,15.37
2022-09-04T03:35:40.622Z,15.39
2022-09-04T03:36:40.793Z,15.41
2022-09-04T03:37:40.972Z,15.43
2022-09-04T03:38:41.163Z,15.41
2022-09-04T03:39:41.387Z,15.39
2022-09-04T03:40:41.544Z,15.41
2022-09-04T03:41:41.729Z,15.43
2022-09-04T03:42:41.898Z,15.41
2022-09-04T03:43:42.098Z,15.39
2022-09-04T03:44:42.267Z,15.36
2022-09-04T03:45:42.439Z,15.35
2022-09-04T03:46:42.697Z,15.35
2022-09-04T03:47:42.761Z,15.36
2022-09-04T03:48:42.970Z,15.35
2022-09-04T03:49:43.152Z,15.33
2022-09-04T03:50:43.339Z,15.30
2022-09-04T03:51:43.528Z,15.30
2022-09-04T03:52:43.727Z,15.27
2022-09-04T03:53:43.939Z,15.29
2022-09-04T03:54:44.130Z,15.29
2022-09-04T03:55:44.320Z,15.27
2022-09-04T03:56:44.508Z,15.27
2022-09-04T03:57:44.706Z,15.30
2022-09-04T03:58:44.911Z,15.30
2022-09-04T03:59:45.130Z,15.29
2022-09-04T04:00:45.372Z,15.30
2022-09-04T04:01:45.459Z,15.29
2022-09-04T04:02:45.681Z,15.26
2022-09-04T04:03:45.873Z,15.26
2022-09-04T04:04:46.067Z,15.25
2022-09-04T04:05:48.234Z,15.26
2022-09-04T04:06:46.453Z,15.25
2022-09-04T04:07:46.620Z,15.23
2022-09-04T04:08:46.806Z,15.22
2022-09-04T04:09:46.988Z,15.19
2022-09-04T04:10:47.213Z,15.17
2022-09-04T04:11:47.388Z,15.15
2022-09-04T04:12:48.947Z,15.17
2022-09-04T04:13:47.802Z,15.15
2022-09-04T04:14:47.976Z,15.15
2022-09-04T04:15:48.209Z,15.14
2022-09-04T04:16:55.876Z,15.10
2022-09-04T04:17:49.497Z,15.08
2022-09-04T04:18:48.695Z,15.10
2022-09-04T04:19:48.887Z,15.10
2022-09-04T04:20:49.067Z,15.08
2022-09-04T04:21:49.228Z,15.07
2022-09-04T04:22:49.396Z,15.07
2022-09-04T04:23:49.615Z,15.07
2022-09-04T04:24:49.794Z,15.08
2022-09-04T04:25:52.694Z,15.05
2022-09-04T04:26:54.605Z,15.05
2022-09-04T04:27:50.326Z,15.05
2022-09-04T04:28:50.551Z,15.02
2022-09-04T04:29:50.723Z,14.99
2022-09-04T04:30:50.890Z,14.96
2022-09-04T04:31:51.127Z,14.96
2022-09-04T04:32:51.269Z,14.94
2022-09-04T04:33:51.462Z,14.92
2022-09-04T04:34:51.640Z,14.92
2022-09-04T04:35:51.835Z,14.90
2022-09-04T04:36:52.011Z,14.89
2022-09-04T04:37:52.236Z,14.89
2022-09-04T04:38:52.423Z,14.87
2022-09-04T04:39:52.666Z,14.85
2022-09-04T04:40:52.755Z,14.81
2022-09-04T04:41:52.934Z,14.82
2022-09-04T04:42:53.119Z,14.82
2022-09-04T04:43:53.326Z,14.82
2022-09-04T04:44:53.507Z,14.82
2022-09-04T04:45:53.705Z,14.86
2022-09-04T04:46:53.958Z,14.86
2022-09-04T04:47:54.023Z,14.86
2022-09-04T04:48:54.222Z,14.85
2022-09-04T04:50:01.467Z,14.86
2022-09-04T04:50:54.611Z,14.86
2022-09-04T04:51:54.824Z,14.87
2022-09-04T04:52:55.033Z,14.86
2022-09-04T04:53:55.246Z,14.82
2022-09-04T04:54:55.449Z,14.82
2022-09-04T04:55:55.662Z,14.79
2022-09-04T04:56:55.858Z,14.82
2022-09-04T04:57:56.074Z,14.81
2022-09-04T04:58:57.361Z,14.81
2022-09-04T04:59:56.561Z,14.81
2022-09-04T05:00:56.739Z,14.78
2022-09-04T05:01:56.913Z,14.77
2022-09-04T05:02:57.002Z,14.78
2022-09-04T05:03:57.675Z,14.78
2022-09-04T05:04:57.422Z,14.77
2022-09-04T05:05:57.602Z,14.78
2022-09-04T05:06:57.795Z,14.78
2022-09-04T05:07:57.983Z,14.78
2022-09-04T05:08:58.223Z,14.81
2022-09-04T05:09:58.400Z,14.81
2022-09-04T05:10:58.582Z,14.81
2022-09-04T05:11:58.774Z,14.82
2022-09-04T05:12:58.963Z,14.86
2022-09-04T05:13:59.166Z,14.86
2022-09-04T05:14:59.369Z,14.90
2022-09-04T05:16:08.868Z,14.90
2022-09-04T05:17:00.773Z,14.92
2022-09-04T05:17:59.814Z,14.92
2022-09-04T05:19:00.041Z,14.94
2022-09-04T05:20:00.232Z,14.93
2022-09-04T05:21:00.424Z,14.94
2022-09-04T05:22:00.598Z,14.94
2022-09-04T05:23:00.813Z,14.97
2022-09-04T05:24:01.010Z,14.99
2022-09-04T05:25:01.317Z,15.00
2022-09-04T05:26:01.367Z,15.00
2022-09-04T05:27:01.541Z,15.02
2022-09-04T05:28:01.718Z,15.04
2022-09-04T05:29:01.943Z,15.04
2022-09-04T05:30:02.146Z,15.05
2022-09-04T05:31:02.444Z,15.11
2022-09-04T05:32:02.557Z,15.14
2022-09-04T05:33:02.727Z,15.17
2022-09-04T05:34:02.954Z,15.19
2022-09-04T05:35:03.146Z,15.23
2022-09-04T05:36:03.396Z,15.26
2022-09-04T05:37:03.549Z,15.29
2022-09-04T05:38:03.699Z,15.30
2022-09-04T05:39:03.896Z,15.33
2022-09-04T05:40:04.251Z,15.33
2022-09-04T05:41:04.256Z,15.37
2022-09-04T05:42:06.598Z,15.43
2022-09-04T05:43:05.595Z,15.45
2022-09-04T05:44:04.856Z,15.48
2022-09-04T05:45:04.944Z,15.51
2022-09-04T05:46:05.197Z,15.54
2022-09-04T05:47:05.262Z,15.52
2022-09-04T05:48:05.435Z,15.55
2022-09-04T05:49:05.628Z,15.66
2022-09-04T05:50:05.828Z,15.69
2022-09-04T05:51:06.005Z,15.78
2022-09-04T05:52:06.191Z,15.83
2022-09-04T05:53:06.373Z,15.91
2022-09-04T05:54:06.586Z,15.94
2022-09-04T05:55:07.716Z,15.96
2022-09-04T05:56:06.985Z,15.96
2022-09-04T05:57:07.118Z,16.00
2022-09-04T05:58:07.299Z,16.09
2022-09-04T05:59:07.501Z,16.24
2022-09-04T06:00:07.719Z,16.24
2022-09-04T06:01:07.863Z,16.34
2022-09-04T06:02:08.087Z,16.43
2022-09-04T06:03:08.446Z,16.50
2022-09-04T06:04:08.493Z,16.55
2022-09-04T06:05:08.662Z,16.58
2022-09-04T06:06:08.850Z,16.59
2022-09-04T06:07:09.011Z,16.66
2022-09-04T06:08:09.176Z,16.62
2022-09-04T06:09:09.355Z,16.58
2022-09-04T06:10:09.555Z,16.55
2022-09-04T06:11:09.742Z,16.57
2022-09-04T06:12:09.956Z,16.64
2022-09-04T06:13:10.120Z,16.68
2022-09-04T06:14:10.312Z,16.74
2022-09-04T06:15:10.476Z,16.73
2022-09-04T06:16:10.707Z,16.76
2022-09-04T06:17:10.856Z,16.72
2022-09-04T06:18:10.996Z,16.69
2022-09-04T06:19:11.052Z,16.69
2022-09-04T06:20:11.212Z,16.69
2022-09-04T06:21:11.363Z,16.74
2022-09-04T06:22:11.524Z,16.73
2022-09-04T06:23:11.692Z,16.68
2022-09-04T06:24:11.883Z,16.59
2022-09-04T06:25:12.043Z,16.59
2022-09-04T06:26:12.243Z,16.54
2022-09-04T06:27:12.539Z,16.57
2022-09-04T06:28:12.546Z,16.57
2022-09-04T06:29:13.025Z,16.65
2022-09-04T06:30:12.867Z,16.59
2022-09-04T06:31:13.089Z,16.74
2022-09-04T06:32:13.160Z,16.83
2022-09-04T06:33:13.368Z,17.07
2022-09-04T06:34:13.539Z,17.27
2022-09-04T06:35:13.710Z,17.49
2022-09-04T06:36:13.978Z,17.63
2022-09-04T06:37:14.071Z,17.91
2022-09-04T06:38:14.219Z,17.78
2022-09-04T06:39:14.396Z,17.84
2022-09-04T06:40:14.624Z,17.82
2022-09-04T06:41:14.738Z,18.05
2022-09-04T06:42:14.907Z,18.15
2022-09-04T06:43:15.072Z,18.18
2022-09-04T06:44:15.289Z,18.34
2022-09-04T06:45:15.957Z,18.45
2022-09-04T06:46:16.278Z,18.61
2022-09-04T06:47:15.579Z,18.63
2022-09-04T06:48:15.751Z,18.88
2022-09-04T06:49:15.963Z,19.01
2022-09-04T06:50:15.998Z,19.08
2022-09-04T06:51:16.142Z,19.20
2022-09-04T06:52:16.289Z,19.52
2022-09-04T06:53:16.447Z,19.77
2022-09-04T06:54:16.611Z,19.81
2022-09-04T06:55:16.797Z,20.00
2022-09-04T06:56:17.108Z,19.90
2022-09-04T06:57:17.069Z,19.89
2022-09-04T06:58:17.224Z,20.07
2022-09-04T06:59:17.370Z,20.02
2022-09-04T07:00:17.571Z,20.10
2022-09-04T07:01:17.727Z,20.15
2022-09-04T07:02:17.921Z,20.24
2022-09-04T07:03:17.903Z,20.27
2022-09-04T07:04:18.134Z,20.14
2022-09-04T07:05:18.226Z,20.24
2022-09-04T07:06:18.276Z,20.34
2022-09-04T07:07:18.397Z,20.50
2022-09-04T07:08:18.573Z,20.58
2022-09-04T07:09:18.685Z,20.26
2022-09-04T07:10:18.913Z,20.15
2022-09-04T07:11:18.932Z,19.78
2022-09-04T07:12:19.072Z,19.56
2022-09-04T07:13:19.195Z,19.66
2022-09-04T07:14:19.328Z,19.93
2022-09-04T07:15:19.507Z,20.26
2022-09-04T07:16:20.249Z,20.86
2022-09-04T07:17:19.820Z,21.03
2022-09-04T07:18:20.011Z,20.73
2022-09-04T07:19:20.099Z,20.32
2022-09-04T07:20:20.265Z,20.26
2022-09-04T07:21:20.400Z,20.18
2022-09-04T07:22:20.545Z,20.15
2022-09-04T07:23:20.685Z,19.72
2022-09-04T07:24:20.841Z,19.60
2022-09-04T07:25:20.988Z,19.57
2022-09-04T07:26:21.139Z,20.04
2022-09-04T07:27:21.275Z,20.71
2022-09-04T07:28:21.409Z,21.23
2022-09-04T07:29:25.624Z,21.75
2022-09-04T07:30:21.742Z,22.37
2022-09-04T07:31:21.808Z,22.40
2022-09-04T07:32:21.958Z,22.56
2022-09-04T07:33:22.120Z,23.28
2022-09-04T07:34:22.265Z,23.79
2022-09-04T07:35:22.404Z,23.91
2022-09-04T07:36:25.341Z,23.86
2022-09-04T07:37:23.656Z,23.86
2022-09-04T07:38:22.813Z,23.91
2022-09-04T07:39:23.252Z,23.71
2022-09-04T07:40:23.077Z,23.01
2022-09-04T07:41:23.128Z,22.49
2022-09-04T07:42:23.270Z,22.16
2022-09-04T07:43:23.454Z,22.58
2022-09-04T07:44:23.460Z,22.98
2022-09-04T07:45:23.615Z,23.45
2022-09-04T07:46:23.842Z,23.73
2022-09-04T07:47:23.868Z,23.89
2022-09-04T07:48:24.003Z,24.04
2022-09-04T07:49:24.105Z,24.28
2022-09-04T07:50:24.272Z,24.43
2022-09-04T07:51:24.335Z,24.29
2022-09-04T07:52:24.471Z,24.46
2022-09-04T07:53:24.745Z,24.88
2022-09-04T07:54:24.645Z,24.86
2022-09-04T07:55:24.795Z,25.01
2022-09-04T07:56:24.923Z,25.29
2022-09-04T07:57:25.029Z,24.18
2022-09-04T07:58:25.236Z,24.38
2022-09-04T07:59:25.238Z,23.92
2022-09-04T08:00:25.363Z,23.92
2022-09-04T08:01:25.538Z,24.51
2022-09-04T08:02:25.531Z,25.22
2022-09-04T08:03:25.618Z,25.01
2022-09-04T08:04:25.831Z,25.19
2022-09-04T08:05:25.838Z,25.30
2022-09-04T08:06:26.524Z,25.68
2022-09-04T08:07:26.234Z,26.08
2022-09-04T08:08:26.326Z,26.23
2022-09-04T08:09:26.306Z,26.07
2022-09-04T08:10:26.324Z,25.83
2022-09-04T08:11:26.448Z,25.52
2022-09-04T08:12:26.563Z,25.34
2022-09-04T08:13:26.660Z,25.15
2022-09-04T08:14:26.761Z,25.37
2022-09-04T08:15:26.894Z,25.67
2022-09-04T08:16:26.987Z,25.37
2022-09-04T08:17:26.974Z,25.26
2022-09-04T08:18:27.089Z,25.54
2022-09-04T08:19:27.162Z,26.04
2022-09-04T08:20:28.942Z,26.16
2022-09-04T08:21:27.339Z,26.19
2022-09-04T08:22:28.422Z,26.60
2022-09-04T08:23:27.593Z,26.74
2022-09-04T08:24:27.650Z,26.23
2022-09-04T08:25:27.747Z,26.45
2022-09-04T08:26:27.818Z,26.51
2022-09-04T08:27:27.887Z,26.82
2022-09-04T08:28:27.967Z,26.88
2022-09-04T08:29:28.035Z,26.10
2022-09-04T08:30:28.125Z,25.95
2022-09-04T08:31:28.228Z,25.99
2022-09-04T08:32:30.698Z,26.30
2022-09-04T08:33:29.267Z,26.24
2022-09-04T08:34:28.327Z,26.74
2022-09-04T08:35:28.512Z,26.42
2022-09-04T08:36:28.487Z,26.33
2022-09-04T08:37:28.575Z,25.93
2022-09-04T08:38:28.644Z,26.15
2022-09-04T08:39:28.736Z,26.19
2022-09-04T08:40:28.801Z,26.34
2022-09-04T08:41:28.837Z,26.31
2022-09-04T08:42:28.917Z,26.44
2022-09-04T08:43:28.980Z,26.37
2022-09-04T08:44:29.048Z,26.56
2022-09-04T08:45:29.115Z,26.52
2022-09-04T08:46:29.246Z,27.07
2022-09-04T08:47:29.183Z,27.45
2022-09-04T08:48:29.244Z,27.01
2022-09-04T08:49:29.324Z,26.46
2022-09-04T08:50:29.348Z,25.95
2022-09-04T08:51:29.405Z,25.76
2022-09-04T08:52:29.480Z,26.29
2022-09-04T08:53:29.509Z,26.16
2022-09-04T08:54:29.558Z,25.77
2022-09-04T08:55:29.636Z,25.89
2022-09-04T08:56:29.685Z,26.23
2022-09-04T08:57:29.741Z,26.27
2022-09-04T08:58:29.790Z,26.49
2022-09-04T08:59:29.850Z,26.86
2022-09-04T09:00:29.874Z,26.97
2022-09-04T09:01:29.954Z,26.29
2022-09-04T09:02:30.024Z,26.10
2022-09-04T09:03:30.082Z,25.99
2022-09-04T09:04:30.137Z,26.19
2022-09-04T09:05:30.213Z,26.16
2022-09-04T09:06:30.269Z,26.52
2022-09-04T09:07:30.337Z,26.44
2022-09-04T09:08:31.791Z,26.10
2022-09-04T09:09:30.420Z,26.19
2022-09-04T09:10:30.479Z,25.95
2022-09-04T09:11:30.548Z,25.77
2022-09-04T09:12:40.799Z,25.56
2022-09-04T09:13:31.623Z,25.74
2022-09-04T09:14:30.670Z,26.26
2022-09-04T09:15:30.750Z,26.52
2022-09-04T09:16:30.852Z,26.55
2022-09-04T09:17:34.868Z,26.70
2022-09-04T09:18:30.865Z,26.56
2022-09-04T09:19:30.911Z,26.52
2022-09-04T09:20:30.992Z,26.55
2022-09-04T09:21:31.036Z,26.63
2022-09-04T09:22:31.102Z,26.91
2022-09-04T09:23:31.163Z,26.93
2022-09-04T09:24:31.208Z,26.71
2022-09-04T09:25:31.271Z,26.67
2022-09-04T09:26:31.312Z,26.93
2022-09-04T09:27:31.368Z,27.03
2022-09-04T09:28:31.436Z,26.91
2022-09-04T09:29:31.473Z,26.56
2022-09-04T09:30:31.624Z,26.30
2022-09-04T09:31:31.571Z,26.23
2022-09-04T09:32:31.572Z,26.53
2022-09-04T09:33:31.606Z,26.68
2022-09-04T09:34:31.665Z,26.53
2022-09-04T09:35:31.722Z,26.46
2022-09-04T09:36:31.781Z,26.59
2022-09-04T09:37:31.818Z,26.60
2022-09-04T09:38:31.854Z,26.56
2022-09-04T09:39:31.910Z,26.89
2022-09-04T09:40:31.967Z,26.88
2022-09-04T09:41:32.009Z,26.74
2022-09-04T09:42:32.048Z,27.19
2022-09-04T09:43:32.082Z,27.63
2022-09-04T09:44:32.113Z,28.12
2022-09-04T09:45:32.167Z,27.85
2022-09-04T09:46:32.203Z,27.25
2022-09-04T09:47:32.246Z,27.11
2022-09-04T09:48:32.287Z,26.83
2022-09-04T09:49:32.321Z,26.85
2022-09-04T09:50:32.368Z,27.07
2022-09-04T09:51:32.403Z,27.33
2022-09-04T09:52:32.423Z,27.82
2022-09-04T09:53:32.473Z,27.90
2022-09-04T09:54:32.504Z,28.00
2022-09-04T09:55:32.555Z,27.83
2022-09-04T09:56:32.589Z,27.63
2022-09-04T09:57:33.567Z,27.43
2022-09-04T09:58:32.644Z,27.45
2022-09-04T09:59:32.673Z,27.72
2022-09-04T10:00:32.760Z,27.22
2022-09-04T10:01:32.726Z,27.30
2022-09-04T10:02:32.664Z,27.48
2022-09-04T10:03:32.647Z,27.71
2022-09-04T10:04:34.218Z,27.90
2022-09-04T10:05:32.729Z,27.47
2022-09-04T10:06:32.776Z,27.44
2022-09-04T10:07:32.806Z,27.61
2022-09-04T10:08:36.055Z,27.83
2022-09-04T10:09:32.922Z,27.22
2022-09-04T10:10:32.958Z,27.38
2022-09-04T10:11:33.044Z,27.16
2022-09-04T10:12:32.961Z,26.83
2022-09-04T10:13:33.006Z,26.86
2022-09-04T10:14:33.046Z,26.85
2022-09-04T10:15:33.120Z,26.63
2022-09-04T10:16:33.057Z,26.66
2022-09-04T10:17:33.116Z,26.66
2022-09-04T10:18:33.016Z,27.01
2022-09-04T10:19:36.425Z,27.22
2022-09-04T10:20:34.081Z,27.19
2022-09-04T10:21:33.132Z,27.63
2022-09-04T10:22:33.159Z,27.55
2022-09-04T10:23:33.216Z,27.81
2022-09-04T10:24:33.242Z,28.13
2022-09-04T10:25:33.294Z,27.97
2022-09-04T10:26:33.216Z,27.97
2022-09-04T10:27:33.293Z,28.01
2022-09-04T10:28:33.242Z,28.15
2022-09-04T10:29:33.277Z,27.85
2022-09-04T10:30:33.339Z,27.90
2022-09-04T10:31:33.314Z,27.71
2022-09-04T10:32:33.254Z,27.93
2022-09-04T10:33:33.279Z,27.97
2022-09-04T10:34:33.308Z,28.30
2022-09-04T10:35:33.427Z,28.45
2022-09-04T10:36:33.370Z,28.56
2022-09-04T10:37:33.397Z,28.43
2022-09-04T10:38:33.453Z,28.12
2022-09-04T10:39:33.531Z,28.09
2022-09-04T10:40:33.488Z,28.31
2022-09-04T10:41:33.624Z,28.70
2022-09-04T10:42:33.567Z,28.83
2022-09-04T10:43:33.634Z,28.94
2022-09-04T10:44:33.544Z,28.89
2022-09-04T10:45:33.586Z,29.02
2022-09-04T10:46:33.631Z,29.03
2022-09-04T10:47:33.542Z,29.59
2022-09-04T10:48:33.498Z,30.16
2022-09-04T10:49:40.536Z,30.67
2022-09-04T10:50:35.320Z,31.26
2022-09-04T10:51:35.317Z,31.32
2022-09-04T10:52:33.543Z,31.55
2022-09-04T10:53:33.552Z,31.47
2022-09-04T10:54:33.564Z,31.08
2022-09-04T10:55:33.563Z,31.08
2022-09-04T10:56:33.605Z,31.11
2022-09-04T10:57:33.593Z,31.37
2022-09-04T10:58:33.613Z,31.22
2022-09-04T10:59:33.743Z,31.17
2022-09-04T11:00:33.555Z,31.20
2022-09-04T11:01:33.508Z,31.04
2022-09-04T11:02:33.540Z,30.55
2022-09-04T11:03:33.560Z,30.33
2022-09-04T11:04:33.471Z,30.18
2022-09-04T11:05:33.467Z,30.32
2022-09-04T11:06:35.444Z,30.85
2022-09-04T11:07:33.429Z,31.15
2022-09-04T11:08:33.440Z,31.50
2022-09-04T11:09:33.447Z,31.89
2022-09-04T11:10:33.460Z,32.26
2022-09-04T11:11:33.463Z,31.44
2022-09-04T11:12:33.454Z,31.13
2022-09-04T11:13:33.454Z,31.15
2022-09-04T11:14:33.476Z,31.41
2022-09-04T11:15:33.463Z,31.32
2022-09-04T11:16:33.553Z,31.54
2022-09-04T11:17:33.416Z,31.70
2022-09-04T11:18:33.416Z,31.89
2022-09-04T11:19:33.398Z,32.22
2022-09-04T11:20:33.398Z,31.18
2022-09-04T11:21:33.390Z,30.27
2022-09-04T11:22:33.382Z,29.44
2022-09-04T11:23:33.484Z,29.28
2022-09-04T11:24:33.369Z,29.64
2022-09-04T11:25:33.372Z,29.80
2022-09-04T11:26:33.386Z,29.96
2022-09-04T11:27:33.391Z,30.18
2022-09-04T11:28:33.401Z,30.16
2022-09-04T11:29:33.449Z,30.78
2022-09-04T11:30:33.365Z,30.83
2022-09-04T11:31:33.446Z,30.48
2022-09-04T11:32:33.334Z,30.10
2022-09-04T11:33:33.328Z,30.43
2022-09-04T11:34:33.986Z,30.03
2022-09-04T11:35:33.315Z,29.64
2022-09-04T11:36:33.320Z,29.74
2022-09-04T11:37:33.327Z,29.53
2022-09-04T11:38:33.336Z,29.53
2022-09-04T11:39:33.370Z,28.89
2022-09-04T11:40:33.434Z,28.65
2022-09-04T11:41:33.370Z,29.09
2022-09-04T11:42:33.372Z,29.61
2022-09-04T11:43:33.451Z,29.43
2022-09-04T11:44:33.325Z,29.21
2022-09-04T11:45:33.456Z,29.28
2022-09-04T11:46:33.342Z,29.57
2022-09-04T11:47:33.367Z,29.53
2022-09-04T11:48:33.527Z,29.32
2022-09-04T11:49:33.337Z,29.43
2022-09-04T11:50:33.344Z,29.57
2022-09-04T11:51:33.374Z,29.58
2022-09-04T11:52:33.397Z,29.77
2022-09-04T11:53:33.402Z,29.94
2022-09-04T11:54:33.411Z,29.83
2022-09-04T11:55:33.427Z,30.24
2022-09-04T11:56:33.437Z,30.49
2022-09-04T11:57:33.471Z,30.74
2022-09-04T11:58:33.486Z,30.62
2022-09-04T11:59:33.490Z,30.52
2022-09-04T12:00:33.500Z,30.26
2022-09-04T12:01:33.509Z,30.11
2022-09-04T12:02:33.592Z,30.05
2022-09-04T12:03:33.548Z,30.03
2022-09-04T12:04:33.444Z,30.05
2022-09-04T12:05:33.449Z,30.40
2022-09-04T12:06:33.459Z,30.08
2022-09-04T12:07:42.624Z,30.10
2022-09-04T12:08:34.405Z,30.38
2022-09-04T12:09:33.401Z,30.77
2022-09-04T12:10:33.405Z,31.02
2022-09-04T12:11:33.404Z,31.15
2022-09-04T12:12:33.419Z,31.13
2022-09-04T12:13:33.436Z,31.14
2022-09-04T12:14:33.437Z,31.28
2022-09-04T12:15:33.436Z,31.41
2022-09-04T12:16:33.985Z,31.85
2022-09-04T12:17:33.442Z,32.27
2022-09-04T12:18:33.489Z,32.38
2022-09-04T12:19:33.476Z,32.04
2022-09-04T12:20:33.477Z,31.70
2022-09-04T12:21:33.535Z,31.63
2022-09-04T12:22:33.440Z,31.32
2022-09-04T12:23:33.421Z,31.77
2022-09-04T12:24:33.427Z,31.86
2022-09-04T12:25:33.413Z,31.86
2022-09-04T12:26:33.428Z,31.95
2022-09-04T12:27:33.423Z,31.86
2022-09-04T12:28:33.433Z,31.86
2022-09-04T12:29:33.430Z,31.41
2022-09-04T12:30:33.429Z,31.30
2022-09-04T12:31:33.490Z,31.20
2022-09-04T12:32:33.432Z,30.59
2022-09-04T12:33:33.437Z,30.98
2022-09-04T12:34:33.424Z,31.00
2022-09-04T12:35:33.421Z,30.77
2022-09-04T12:36:33.475Z,30.88
2022-09-04T12:37:33.362Z,30.83
2022-09-04T12:38:33.366Z,30.92
2022-09-04T12:39:33.477Z,30.40
2022-09-04T12:40:33.403Z,30.67
2022-09-04T12:41:33.314Z,30.35
2022-09-04T12:42:33.362Z,30.62
2022-09-04T12:43:33.284Z,31.05
2022-09-04T12:44:33.284Z,31.54
2022-09-04T12:45:33.300Z,31.33
2022-09-04T12:46:33.411Z,31.57
2022-09-04T12:47:33.333Z,31.95
2022-09-04T12:48:33.347Z,31.79
2022-09-04T12:49:33.334Z,31.00
2022-09-04T12:50:33.335Z,31.36
2022-09-04T12:51:33.365Z,31.77
2022-09-04T12:52:33.374Z,32.27
2022-09-04T12:53:33.472Z,32.51